Hauptseite
METAR-TAF:

METAR-TAF

Flughäfen :

Larisa, Griechenland

Breite: 39-38N, Länge: 022-25E, Höhe: 73 m

METAR: fehlend

Zeit: 07:32 (05:32 UTC)

Prognose

Neuester Wetterbericht von vor 3 Stunden und 32 Minuten, um 02:00 UTC
Gültige Prognose vom 22 um 03 UTC bis 22 um 12 UTC
Wind 3 kt aus unterschiedlichen Richtungen
Sichtweite: 5000 m
Aufgelockert bewölkt in der Höhe von 1500 ft
Aufgelockert bewölkt in der Höhe von 8000 ft
feuchter Dunst
Wahrscheinlichkeit 30% :
Zeitweise
vom 22 um 05 UTC bis 22 um 07 UTC
Sichtweite: 0800 m
Aufgelockert bewölkt in der Höhe von 800 ft
Aufgelockert bewölkt in der Höhe von 2000 ft
Nebel
Übergehend zu
vom 22 um 09 UTC bis 22 um 11 UTC
Wind 10 kt aus Nord/Nordost
Leicht bewölkt in der Höhe von 2000 ft
Aufgelockert bewölkt in der Höhe von 8000 ft

TAF: LGLR 220200Z 2203/2212 VRB03KT 5000 BR SCT015 SCT080 PROB30 TEMPO 2205/2207 0800 FG SCT008 SCT020 BECMG 2209/2211 02010KT FEW020 SCT080

Wetterbeobachtungen und Prognosen von mehr als 4000 Flughäfen (METAR und TAF Bericht).

Die verfügbaren Stationen werden durch gelbe und rote Markierungen auf der Karte dargestellt.

Führen Sie die Maus auf sie, um den Namen der Station zu sehen.

Darauf klicken, um die Beobachtung von Wetterbeobachtungen und Prognosen zu sehen.

Um die Karte zu ändern : klicken Sie auf den grünen Tasten mit einem schwarzen Kreuz Zum Vergrößern, auf den grünen Button mit einem Gedankenstrich zu verkleinern, oder auf die grünen Pfeile für benachbarte Karten.


METAR-TAF: